Time;durP1;ratioP1;P1;durP2;ratioP2;P2;SDS_P1;SDS_P2;PMS_P1;PMS_P2;Temp;Humidity;BMP_temperature;BMP_pressure;BME280_temperature;BME280_humidity;BME280_pressure;Samples;Min_cycle;Max_cycle;Signal;HPM_P1;HPM_P2
2022/11/21 00:01:56;;;;;;;22.77;13.27;;;;;;;;;;5025662;28;20053;-73
2022/11/21 00:04:23;;;;;;;30.02;15.88;;;;;;;;;;5029505;28;20043;-73
2022/11/21 00:06:51;;;;;;;28.88;15.80;;;;;;;;;;5026283;28;20128;-73
2022/11/21 00:09:18;;;;;;;26.67;15.60;;;;;;;;;;5026707;28;20424;-73
2022/11/21 00:11:47;;;;;;;27.17;15.52;;;;;;;;;;5030004;28;20467;-73
2022/11/21 00:14:14;;;;;;;26.00;14.35;;;;;;;;;;5029939;28;20041;-72
2022/11/21 00:16:41;;;;;;;26.60;15.35;;;;;;;;;;5047221;28;20592;-73
2022/11/21 00:19:09;;;;;;;26.25;14.30;;;;;;;;;;5029589;28;20083;-73
2022/11/21 00:21:36;;;;;;;24.58;14.35;;;;;;;;;;5029199;28;20064;-73
2022/11/21 00:24:03;;;;;;;25.15;14.57;;;;;;;;;;5032460;28;20503;-72
2022/11/21 00:26:30;;;;;;;29.52;15.15;;;;;;;;;;5023806;28;20139;-73
2022/11/21 00:28:59;;;;;;;26.88;15.60;;;;;;;;;;5029880;28;20567;-73
2022/11/21 00:31:26;;;;;;;25.92;15.73;;;;;;;;;;5032016;28;20075;-72
2022/11/21 00:33:53;;;;;;;25.77;14.70;;;;;;;;;;5028025;28;20500;-73
2022/11/21 00:36:21;;;;;;;28.80;15.13;;;;;;;;;;5033074;28;20443;-74
2022/11/21 00:38:48;;;;;;;28.52;15.93;;;;;;;;;;5028548;28;20045;-72
2022/11/21 00:41:15;;;;;;;27.35;16.35;;;;;;;;;;5022918;28;20057;-72
2022/11/21 00:43:42;;;;;;;28.52;16.85;;;;;;;;;;5029642;28;20635;-72
2022/11/21 00:46:11;;;;;;;29.33;15.68;;;;;;;;;;5026863;28;20037;-73
2022/11/21 00:48:38;;;;;;;26.92;15.40;;;;;;;;;;5029162;28;20052;-73
2022/11/21 00:51:06;;;;;;;28.55;16.13;;;;;;;;;;5027635;28;20492;-73
2022/11/21 00:53:33;;;;;;;27.45;15.57;;;;;;;;;;5028201;28;20056;-72
2022/11/21 00:56:00;;;;;;;25.42;14.88;;;;;;;;;;5028272;28;20033;-72
2022/11/21 00:58:29;;;;;;;26.30;14.82;;;;;;;;;;5028255;28;20458;-72
2022/11/21 01:01:02;;;;;;;28.58;15.73;;;;;;;;;;5028083;28;20087;-73
2022/11/21 01:03:32;;;;;;;28.35;16.77;;;;;;;;;;5029334;28;20052;-74
2022/11/21 01:06:01;;;;;;;28.13;15.00;;;;;;;;;;5028820;28;20048;-73
2022/11/21 01:08:28;;;;;;;28.70;14.90;;;;;;;;;;5042588;28;20049;-72
2022/11/21 01:10:55;;;;;;;30.73;15.93;;;;;;;;;;5028725;28;20415;-73
2022/11/21 01:13:23;;;;;;;26.67;15.15;;;;;;;;;;5026843;28;20131;-72
2022/11/21 01:15:50;;;;;;;24.83;14.88;;;;;;;;;;5030343;28;20048;-73
2022/11/21 01:18:17;;;;;;;24.48;14.15;;;;;;;;;;5027735;28;20085;-73
2022/11/21 01:20:46;;;;;;;26.02;13.80;;;;;;;;;;5027353;28;20045;-73
2022/11/21 01:23:13;;;;;;;24.17;13.30;;;;;;;;;;5030691;28;20045;-73
2022/11/21 01:25:40;;;;;;;24.50;14.50;;;;;;;;;;5023527;28;20403;-73
2022/11/21 01:28:07;;;;;;;25.15;15.07;;;;;;;;;;5029470;28;20438;-72
2022/11/21 01:30:35;;;;;;;23.30;13.13;;;;;;;;;;5027473;28;20392;-73
2022/11/21 01:33:02;;;;;;;22.48;13.77;;;;;;;;;;5029132;28;20059;-72
2022/11/21 01:35:29;;;;;;;25.60;13.75;;;;;;;;;;5026888;28;20055;-73
2022/11/21 01:37:58;;;;;;;26.95;14.02;;;;;;;;;;5028914;28;20053;-72
2022/11/21 01:40:25;;;;;;;23.95;13.80;;;;;;;;;;5028526;28;20083;-72
2022/11/21 01:42:53;;;;;;;27.80;14.93;;;;;;;;;;5030898;28;20060;-73
2022/11/21 01:45:39;;;;;;;29.75;15.60;;;;;;;;;;5027743;28;20053;-72
2022/11/21 01:48:07;;;;;;;27.40;14.95;;;;;;;;;;5028364;28;20056;-72
2022/11/21 01:50:34;;;;;;;30.45;15.57;;;;;;;;;;5023475;28;20059;-73
2022/11/21 01:53:02;;;;;;;29.45;15.27;;;;;;;;;;5027574;28;20049;-72
2022/11/21 01:55:30;;;;;;;29.13;15.68;;;;;;;;;;5046418;28;20415;-73
2022/11/21 01:57:57;;;;;;;28.88;15.00;;;;;;;;;;5028225;28;20056;-73
2022/11/21 02:00:25;;;;;;;25.17;14.15;;;;;;;;;;5027906;28;20057;-73
2022/11/21 02:02:54;;;;;;;27.77;14.13;;;;;;;;;;5029824;28;20071;-73
2022/11/21 02:05:23;;;;;;;27.42;15.43;;;;;;;;;;5030347;28;20060;-73
2022/11/21 02:07:53;;;;;;;32.65;16.15;;;;;;;;;;5024703;28;20075;-72
2022/11/21 02:10:22;;;;;;;29.75;15.15;;;;;;;;;;5028659;28;20503;-72
2022/11/21 02:12:51;;;;;;;31.83;15.18;;;;;;;;;;5029239;28;20553;-72
2022/11/21 02:15:18;;;;;;;33.53;16.73;;;;;;;;;;5027482;28;20080;-72
2022/11/21 02:17:46;;;;;;;30.60;16.13;;;;;;;;;;5021152;28;20389;-73
2022/11/21 02:20:14;;;;;;;34.13;17.05;;;;;;;;;;5021656;28;20106;-73
2022/11/21 02:22:48;;;;;;;30.17;15.02;;;;;;;;;;5013949;28;20056;-74
2022/11/21 02:25:18;;;;;;;27.17;15.43;;;;;;;;;;5016975;28;20053;-73
2022/11/21 02:27:46;;;;;;;29.10;15.93;;;;;;;;;;5024059;28;20055;-73
2022/11/21 02:30:14;;;;;;;30.50;15.75;;;;;;;;;;5029101;28;20060;-73
2022/11/21 02:32:45;;;;;;;29.63;16.45;;;;;;;;;;5028713;28;20057;-72
2022/11/21 02:35:13;;;;;;;31.10;15.52;;;;;;;;;;5027913;28;20048;-73
2022/11/21 02:37:40;;;;;;;30.33;16.13;;;;;;;;;;5028261;28;20049;-73
2022/11/21 02:40:10;;;;;;;27.75;14.93;;;;;;;;;;5028975;28;20075;-72
2022/11/21 02:42:41;;;;;;;28.42;15.05;;;;;;;;;;5027413;28;20049;-72
2022/11/21 02:45:10;;;;;;;32.03;16.33;;;;;;;;;;5028077;28;20052;-73
2022/11/21 02:47:39;;;;;;;29.00;16.23;;;;;;;;;;5026461;28;20053;-72
2022/11/21 02:50:11;;;;;;;29.63;15.75;;;;;;;;;;5027747;28;20055;-72
2022/11/21 02:52:38;;;;;;;33.13;16.70;;;;;;;;;;5030229;28;20518;-72
2022/11/21 02:55:06;;;;;;;28.73;16.00;;;;;;;;;;5033422;28;20156;-73
2022/11/21 02:57:33;;;;;;;32.95;16.52;;;;;;;;;;5032550;28;20064;-73
2022/11/21 03:00:02;;;;;;;29.27;16.17;;;;;;;;;;5032411;28;20455;-73
2022/11/21 03:02:29;;;;;;;29.83;15.70;;;;;;;;;;5030919;28;20577;-72
2022/11/21 03:04:56;;;;;;;34.25;16.92;;;;;;;;;;5025697;28;20051;-72
2022/11/21 03:07:23;;;;;;;34.90;16.48;;;;;;;;;;5031940;28;20049;-73
2022/11/21 03:09:51;;;;;;;34.15;17.40;;;;;;;;;;5029079;28;20045;-73
2022/11/21 03:12:18;;;;;;;35.00;17.52;;;;;;;;;;5034847;28;20065;-73
2022/11/21 03:14:45;;;;;;;32.03;16.58;;;;;;;;;;5024739;28;20045;-73
2022/11/21 03:17:14;;;;;;;30.98;16.33;;;;;;;;;;5032789;28;20041;-73
2022/11/21 03:19:41;;;;;;;39.65;17.30;;;;;;;;;;5031567;28;20529;-73
2022/11/21 03:22:09;;;;;;;32.95;16.75;;;;;;;;;;5036855;28;20045;-72
2022/11/21 03:24:36;;;;;;;30.98;17.35;;;;;;;;;;5031790;28;20061;-73
2022/11/21 03:27:03;;;;;;;32.53;16.50;;;;;;;;;;5026235;28;20423;-73
2022/11/21 03:29:30;;;;;;;38.67;17.60;;;;;;;;;;5025662;28;20138;-73
2022/11/21 03:31:58;;;;;;;32.22;16.48;;;;;;;;;;5047978;28;20418;-73
2022/11/21 03:34:26;;;;;;;31.70;16.88;;;;;;;;;;5028870;28;20060;-73
2022/11/21 03:36:53;;;;;;;35.35;17.13;;;;;;;;;;5032756;28;20127;-72
2022/11/21 03:39:21;;;;;;;33.38;18.52;;;;;;;;;;5031110;28;21183;-73
2022/11/21 03:41:48;;;;;;;41.58;17.77;;;;;;;;;;5026631;28;20053;-72
2022/11/21 03:44:15;;;;;;;37.25;17.63;;;;;;;;;;5023943;28;20052;-72
2022/11/21 03:46:43;;;;;;;34.50;17.88;;;;;;;;;;5025044;28;20053;-73
2022/11/21 03:49:10;;;;;;;32.10;17.10;;;;;;;;;;5022963;28;20045;-73
2022/11/21 03:51:39;;;;;;;32.65;17.08;;;;;;;;;;5028093;28;20060;-72
2022/11/21 03:54:06;;;;;;;39.65;20.30;;;;;;;;;;5028319;28;20634;-73
2022/11/21 03:56:34;;;;;;;38.90;18.67;;;;;;;;;;5026881;28;20047;-73
2022/11/21 03:59:01;;;;;;;34.40;17.42;;;;;;;;;;5027883;28;20044;-72
2022/11/21 04:01:28;;;;;;;34.50;17.65;;;;;;;;;;5018939;28;20053;-72
2022/11/21 04:03:56;;;;;;;37.65;18.35;;;;;;;;;;5029467;28;20056;-72
2022/11/21 04:06:23;;;;;;;40.80;19.65;;;;;;;;;;5028333;28;20677;-73
2022/11/21 04:08:52;;;;;;;35.40;18.00;;;;;;;;;;5028984;28;20064;-73
2022/11/21 04:11:22;;;;;;;37.95;18.77;;;;;;;;;;5026983;28;20052;-73
2022/11/21 04:13:49;;;;;;;31.95;17.38;;;;;;;;;;5026873;28;20111;-72
2022/11/21 04:16:16;;;;;;;50.38;18.85;;;;;;;;;;5025156;28;20128;-72
2022/11/21 04:18:44;;;;;;;33.10;17.48;;;;;;;;;;5030083;28;20074;-73
2022/11/21 04:21:11;;;;;;;37.40;17.48;;;;;;;;;;5027947;28;20048;-72
2022/11/21 04:23:38;;;;;;;30.75;16.15;;;;;;;;;;5032619;28;20060;-74
2022/11/21 04:26:07;;;;;;;33.78;16.30;;;;;;;;;;5026939;28;20060;-73
2022/11/21 04:28:34;;;;;;;27.95;15.10;;;;;;;;;;5018838;28;20057;-73
2022/11/21 04:31:04;;;;;;;35.92;18.13;;;;;;;;;;5019973;28;20152;-73
2022/11/21 04:33:32;;;;;;;36.67;17.92;;;;;;;;;;5026777;28;20057;-73
2022/11/21 04:35:59;;;;;;;33.65;17.30;;;;;;;;;;5024577;28;20041;-72
2022/11/21 04:38:26;;;;;;;33.75;17.20;;;;;;;;;;5023202;28;20047;-73
2022/11/21 04:40:54;;;;;;;34.38;17.98;;;;;;;;;;5026251;28;20522;-72
2022/11/21 04:43:22;;;;;;;35.60;17.42;;;;;;;;;;5028984;28;20056;-72
2022/11/21 04:45:49;;;;;;;36.70;17.58;;;;;;;;;;5027788;28;20052;-73
2022/11/21 04:48:17;;;;;;;30.00;15.73;;;;;;;;;;5030598;28;20467;-72
2022/11/21 04:50:44;;;;;;;31.52;16.25;;;;;;;;;;5030555;28;20411;-72
2022/11/21 04:53:11;;;;;;;28.73;16.08;;;;;;;;;;5028985;28;20052;-72
2022/11/21 04:55:38;;;;;;;39.47;17.67;;;;;;;;;;5022316;28;20480;-72
2022/11/21 04:58:05;;;;;;;33.45;16.85;;;;;;;;;;5034319;28;20244;-72
2022/11/21 05:00:35;;;;;;;33.00;16.50;;;;;;;;;;5033654;28;20067;-72
2022/11/21 05:03:03;;;;;;;34.80;16.42;;;;;;;;;;5032065;28;20056;-72
2022/11/21 05:05:30;;;;;;;38.10;17.90;;;;;;;;;;5027699;28;20100;-73
2022/11/21 05:07:57;;;;;;;41.45;19.85;;;;;;;;;;5031009;28;20056;-72
2022/11/21 05:10:25;;;;;;;39.65;19.08;;;;;;;;;;5026895;28;20475;-72
2022/11/21 05:15:50;;;;;;;37.72;18.92;;;;;;;;;;5010336;28;20074;-72
2022/11/21 05:18:18;;;;;;;41.45;20.52;;;;;;;;;;5029427;28;20721;-72
2022/11/21 05:20:45;;;;;;;44.40;22.65;;;;;;;;;;5029283;28;20065;-72
2022/11/21 05:23:13;;;;;;;43.33;20.83;;;;;;;;;;5040163;28;20048;-72
2022/11/21 05:25:40;;;;;;;51.63;23.35;;;;;;;;;;5028972;28;20076;-72
2022/11/21 05:28:07;;;;;;;48.03;23.20;;;;;;;;;;5029465;28;20071;-72
2022/11/21 05:30:36;;;;;;;47.70;21.80;;;;;;;;;;5028884;28;20403;-73
2022/11/21 05:33:04;;;;;;;42.40;21.35;;;;;;;;;;5047850;28;20543;-72
2022/11/21 05:35:32;;;;;;;45.42;21.05;;;;;;;;;;5030827;28;20135;-73
2022/11/21 05:37:59;;;;;;;43.20;21.40;;;;;;;;;;5034480;28;20075;-72
2022/11/21 05:40:27;;;;;;;42.08;20.92;;;;;;;;;;5033460;28;20064;-72
2022/11/21 05:45:35;;;;;;;44.80;21.20;;;;;;;;;;4999624;28;20049;-72
2022/11/21 05:48:06;;;;;;;44.63;21.40;;;;;;;;;;5030328;28;20064;-72
2022/11/21 05:50:36;;;;;;;46.97;21.00;;;;;;;;;;5042076;28;20199;-72
2022/11/21 05:53:03;;;;;;;36.90;19.65;;;;;;;;;;5040563;28;20048;-72
2022/11/21 05:55:31;;;;;;;40.47;20.98;;;;;;;;;;5027816;28;20053;-73
2022/11/21 05:57:59;;;;;;;52.40;23.67;;;;;;;;;;5029356;28;20049;-71
2022/11/21 06:00:27;;;;;;;47.25;22.80;;;;;;;;;;5030528;28;20451;-72
2022/11/21 06:05:40;;;;;;;49.00;22.98;;;;;;;;;;5030565;28;20056;-72
2022/11/21 06:08:07;;;;;;;39.63;20.08;;;;;;;;;;5032064;28;20822;-72
2022/11/21 06:10:35;;;;;;;45.28;21.00;;;;;;;;;;5046096;28;20356;-72
2022/11/21 06:13:02;;;;;;;42.67;21.92;;;;;;;;;;5034539;28;20065;-72
2022/11/21 06:15:29;;;;;;;45.38;22.48;;;;;;;;;;5050924;28;20495;-72
2022/11/21 06:17:56;;;;;;;51.63;22.20;;;;;;;;;;5025795;28;20069;-72
2022/11/21 06:20:23;;;;;;;46.80;22.77;;;;;;;;;;5023855;28;20053;-72
2022/11/21 06:22:52;;;;;;;46.17;22.60;;;;;;;;;;5023043;28;20506;-72
2022/11/21 06:25:20;;;;;;;46.40;22.48;;;;;;;;;;5023983;28;20117;-72
2022/11/21 06:27:47;;;;;;;47.25;23.35;;;;;;;;;;5026808;28;20057;-71
2022/11/21 06:30:14;;;;;;;52.15;23.02;;;;;;;;;;5023376;28;20049;-73
2022/11/21 06:32:41;;;;;;;52.90;22.88;;;;;;;;;;5023161;28;20562;-72
2022/11/21 06:35:09;;;;;;;53.53;23.92;;;;;;;;;;5022690;28;20100;-71
2022/11/21 06:37:36;;;;;;;43.88;21.90;;;;;;;;;;5023311;28;20045;-72
2022/11/21 06:40:05;;;;;;;46.83;21.75;;;;;;;;;;5021900;28;20046;-72
2022/11/21 06:42:33;;;;;;;53.10;22.67;;;;;;;;;;5020871;28;20155;-71
2022/11/21 06:45:00;;;;;;;109.05;24.85;;;;;;;;;;5023346;28;20119;-72
2022/11/21 06:47:27;;;;;;;169.57;23.98;;;;;;;;;;5024388;28;20717;-71
2022/11/21 06:49:55;;;;;;;134.82;25.50;;;;;;;;;;5022896;28;20053;-72
2022/11/21 06:52:22;;;;;;;316.05;33.47;;;;;;;;;;5023485;28;20060;-72
2022/11/21 06:54:49;;;;;;;253.00;29.65;;;;;;;;;;5023179;28;20397;-71
2022/11/21 06:57:18;;;;;;;290.58;30.67;;;;;;;;;;5022293;28;20037;-72
2022/11/21 06:59:45;;;;;;;176.05;27.65;;;;;;;;;;5023699;28;20047;-71
2022/11/21 07:02:13;;;;;;;183.65;28.30;;;;;;;;;;5024367;28;20054;-72
2022/11/21 07:04:40;;;;;;;114.88;29.10;;;;;;;;;;5024941;28;20049;-71
2022/11/21 07:07:07;;;;;;;131.38;28.63;;;;;;;;;;5023875;28;20049;-72
2022/11/21 07:09:35;;;;;;;104.05;31.10;;;;;;;;;;5023862;28;20052;-72
2022/11/21 07:14:45;;;;;;;199.27;32.50;;;;;;;;;;5020396;28;20069;-71
2022/11/21 07:17:13;;;;;;;229.38;30.67;;;;;;;;;;5021850;28;20053;-72
2022/11/21 07:19:40;;;;;;;146.13;29.52;;;;;;;;;;5022615;28;20064;-71
2022/11/21 07:22:08;;;;;;;171.18;30.33;;;;;;;;;;5024345;28;20045;-72
2022/11/21 07:24:35;;;;;;;127.25;30.77;;;;;;;;;;5026891;28;20169;-72
2022/11/21 07:27:02;;;;;;;123.20;28.92;;;;;;;;;;5023717;28;20064;-71
2022/11/21 07:29:30;;;;;;;84.78;28.65;;;;;;;;;;5021212;28;20063;-72
2022/11/21 07:31:58;;;;;;;98.00;29.70;;;;;;;;;;5022316;28;20436;-71
2022/11/21 07:34:26;;;;;;;80.93;31.05;;;;;;;;;;5022251;28;20054;-73
2022/11/21 07:36:55;;;;;;;105.28;30.30;;;;;;;;;;5020159;28;20033;-73
2022/11/21 07:39:23;;;;;;;89.35;28.05;;;;;;;;;;5016969;28;20060;-75
2022/11/21 07:41:50;;;;;;;79.28;26.98;;;;;;;;;;5024048;28;20519;-76
2022/11/21 07:44:17;;;;;;;74.32;26.33;;;;;;;;;;5021160;28;20050;-77
2022/11/21 07:46:44;;;;;;;80.75;27.00;;;;;;;;;;5019885;28;20045;-76
2022/11/21 07:49:13;;;;;;;73.55;27.52;;;;;;;;;;5027725;28;20474;-76
2022/11/21 07:51:40;;;;;;;79.72;27.17;;;;;;;;;;5026243;28;20492;-76
2022/11/21 07:54:07;;;;;;;65.15;27.67;;;;;;;;;;5023809;28;20061;-77
2022/11/21 07:56:35;;;;;;;63.22;26.23;;;;;;;;;;5022757;28;20053;-76
2022/11/21 07:59:02;;;;;;;85.93;29.42;;;;;;;;;;5016438;28;20049;-76
2022/11/21 08:01:29;;;;;;;71.40;28.27;;;;;;;;;;5016908;28;20064;-77
2022/11/21 08:03:56;;;;;;;77.55;29.45;;;;;;;;;;5027511;28;20049;-76
2022/11/21 08:06:25;;;;;;;77.60;29.45;;;;;;;;;;5026980;28;20420;-77
2022/11/21 08:08:53;;;;;;;71.93;28.33;;;;;;;;;;5020598;28;20080;-76
2022/11/21 08:11:21;;;;;;;77.80;31.42;;;;;;;;;;5020300;28;20081;-76
2022/11/21 08:13:48;;;;;;;86.70;30.13;;;;;;;;;;5020615;28;20041;-77
2022/11/21 08:16:15;;;;;;;81.60;31.30;;;;;;;;;;5027565;28;20076;-76
2022/11/21 08:18:43;;;;;;;85.05;29.67;;;;;;;;;;5029670;28;20060;-76
2022/11/21 08:21:10;;;;;;;78.57;30.70;;;;;;;;;;5027348;28;20049;-76
2022/11/21 08:23:38;;;;;;;72.88;30.05;;;;;;;;;;5031518;28;20081;-76
2022/11/21 08:26:10;;;;;;;67.82;29.23;;;;;;;;;;5027838;28;20059;-76
2022/11/21 08:28:37;;;;;;;63.95;26.77;;;;;;;;;;5031417;28;20423;-76
2022/11/21 08:31:05;;;;;;;59.03;26.23;;;;;;;;;;5027391;28;20048;-74
2022/11/21 08:33:33;;;;;;;53.42;23.95;;;;;;;;;;5030178;28;20060;-76
2022/11/21 08:36:04;;;;;;;60.67;25.40;;;;;;;;;;5029866;28;20049;-77
2022/11/21 08:38:31;;;;;;;62.88;26.52;;;;;;;;;;5030097;28;20044;-76
2022/11/21 08:43:45;;;;;;;61.67;25.50;;;;;;;;;;5031474;28;20053;-76
2022/11/21 08:46:12;;;;;;;61.38;25.27;;;;;;;;;;5032445;28;20503;-76
2022/11/21 08:48:39;;;;;;;59.22;25.17;;;;;;;;;;5029234;28;20559;-77
2022/11/21 08:51:06;;;;;;;51.95;22.33;;;;;;;;;;5029596;28;20495;-74
2022/11/21 08:53:34;;;;;;;58.67;22.90;;;;;;;;;;5029827;28;20114;-76
2022/11/21 08:56:02;;;;;;;56.42;23.55;;;;;;;;;;5031088;28;20056;-76
2022/11/21 08:58:29;;;;;;;52.15;23.63;;;;;;;;;;5046524;28;20053;-75
2022/11/21 09:00:57;;;;;;;57.30;23.13;;;;;;;;;;5028347;28;20102;-75
2022/11/21 09:03:24;;;;;;;54.65;22.70;;;;;;;;;;5033281;28;20076;-76
2022/11/21 09:05:51;;;;;;;51.45;24.17;;;;;;;;;;5029781;28;20518;-76
2022/11/21 09:08:18;;;;;;;50.13;23.05;;;;;;;;;;5032931;28;20443;-76
2022/11/21 09:10:46;;;;;;;61.10;23.52;;;;;;;;;;5024045;28;20059;-77
2022/11/21 09:13:14;;;;;;;50.72;23.00;;;;;;;;;;5036444;28;20049;-77
2022/11/21 09:18:26;;;;;;;48.30;20.95;;;;;;;;;;5030332;28;20422;-77
2022/11/21 09:20:53;;;;;;;56.42;22.77;;;;;;;;;;5023926;28;20060;-75
2022/11/21 09:23:21;;;;;;;51.20;23.13;;;;;;;;;;5035401;28;20056;-77
2022/11/21 09:25:48;;;;;;;48.95;22.17;;;;;;;;;;5023430;28;20052;-76
2022/11/21 09:28:17;;;;;;;48.72;21.60;;;;;;;;;;5030400;28;20049;-76
2022/11/21 09:30:45;;;;;;;54.47;23.60;;;;;;;;;;5025970;28;20068;-76
2022/11/21 09:33:13;;;;;;;44.80;20.52;;;;;;;;;;5031086;28;20049;-76
2022/11/21 09:35:40;;;;;;;43.20;19.83;;;;;;;;;;5030151;28;20053;-75
2022/11/21 09:38:07;;;;;;;46.58;20.52;;;;;;;;;;5028697;28;20119;-75
2022/11/21 09:40:35;;;;;;;39.70;18.67;;;;;;;;;;5027216;28;20048;-76
2022/11/21 09:43:14;;;;;;;34.70;17.05;;;;;;;;;;5043859;28;20530;-76
2022/11/21 09:45:47;;;;;;;33.30;16.65;;;;;;;;;;5030067;28;20101;-76
2022/11/21 09:48:16;;;;;;;33.63;16.70;;;;;;;;;;5023907;28;20051;-76
2022/11/21 09:50:45;;;;;;;30.25;16.20;;;;;;;;;;5028628;28;20542;-76
2022/11/21 09:53:14;;;;;;;31.17;15.90;;;;;;;;;;5025414;28;20056;-77
2022/11/21 09:55:44;;;;;;;32.85;16.85;;;;;;;;;;5025960;28;20500;-77
2022/11/21 09:58:16;;;;;;;30.95;16.73;;;;;;;;;;5025397;28;20140;-77
2022/11/21 10:00:45;;;;;;;28.30;14.68;;;;;;;;;;5049970;28;20059;-76
2022/11/21 10:03:13;;;;;;;25.58;14.40;;;;;;;;;;5031308;28;20176;-77
2022/11/21 10:05:44;;;;;;;24.83;14.10;;;;;;;;;;5033660;28;20048;-76
2022/11/21 10:08:16;;;;;;;22.25;13.20;;;;;;;;;;5025686;28;20073;-76
2022/11/21 10:10:51;;;;;;;23.60;12.95;;;;;;;;;;5032407;28;20053;-76
2022/11/21 10:13:23;;;;;;;20.75;12.27;;;;;;;;;;5031754;28;20056;-77
2022/11/21 10:15:57;;;;;;;23.13;13.88;;;;;;;;;;5040098;28;20052;-77
2022/11/21 10:18:32;;;;;;;21.17;12.90;;;;;;;;;;5043794;28;20040;-75
2022/11/21 10:21:01;;;;;;;19.25;12.27;;;;;;;;;;5042482;28;20053;-76
2022/11/21 10:23:39;;;;;;;20.65;12.02;;;;;;;;;;5033199;28;20060;-77
2022/11/21 10:26:14;;;;;;;23.35;12.38;;;;;;;;;;5033213;28;20155;-75
2022/11/21 10:28:43;;;;;;;19.45;11.57;;;;;;;;;;5028167;28;20495;-76
2022/11/21 10:31:13;;;;;;;19.60;12.25;;;;;;;;;;5029649;28;20602;-77
2022/11/21 10:33:41;;;;;;;21.38;11.98;;;;;;;;;;5026653;28;20056;-76
2022/11/21 10:36:14;;;;;;;21.35;12.77;;;;;;;;;;5029908;28;20055;-76
2022/11/21 10:38:43;;;;;;;21.30;12.65;;;;;;;;;;5028121;28;20048;-76
2022/11/21 10:41:16;;;;;;;19.20;11.77;;;;;;;;;;5030874;28;20507;-76
2022/11/21 10:46:32;;;;;;;18.40;11.98;;;;;;;;;;5023317;28;20053;-77
2022/11/21 10:49:00;;;;;;;23.45;13.35;;;;;;;;;;5026918;28;20052;-76
2022/11/21 10:51:40;;;;;;;22.17;12.43;;;;;;;;;;5027260;28;20056;-77
2022/11/21 10:56:55;;;;;;;24.50;13.18;;;;;;;;;;5045795;28;20049;-76
2022/11/21 10:59:24;;;;;;;23.92;12.55;;;;;;;;;;5028170;28;20115;-76
2022/11/21 11:01:57;;;;;;;20.05;12.00;;;;;;;;;;5031030;28;20761;-75
2022/11/21 11:04:25;;;;;;;18.30;11.55;;;;;;;;;;5027743;28;20053;-76
2022/11/21 11:06:53;;;;;;;18.52;11.55;;;;;;;;;;5032520;28;20510;-76
2022/11/21 11:09:24;;;;;;;17.10;10.45;;;;;;;;;;5028133;28;20052;-76
2022/11/21 11:11:51;;;;;;;18.67;11.63;;;;;;;;;;5030630;28;20049;-76
2022/11/21 11:14:27;;;;;;;17.58;11.15;;;;;;;;;;5025535;28;20056;-76
2022/11/21 11:16:56;;;;;;;17.35;10.52;;;;;;;;;;5025136;28;20052;-76
2022/11/21 11:19:26;;;;;;;21.42;11.48;;;;;;;;;;5025178;28;20768;-75
2022/11/21 11:21:55;;;;;;;18.70;11.50;;;;;;;;;;5025841;28;20063;-76
2022/11/21 11:24:24;;;;;;;18.27;11.25;;;;;;;;;;5028732;28;20107;-75
2022/11/21 11:26:53;;;;;;;18.05;11.15;;;;;;;;;;5022732;28;20527;-75
2022/11/21 11:29:21;;;;;;;16.58;10.35;;;;;;;;;;5026545;28;20071;-75
2022/11/21 11:31:53;;;;;;;19.48;11.13;;;;;;;;;;5027412;28;20049;-76
2022/11/21 11:34:22;;;;;;;17.55;11.10;;;;;;;;;;5026923;28;20136;-76
2022/11/21 11:36:56;;;;;;;18.35;10.40;;;;;;;;;;5029913;28;20049;-77
2022/11/21 11:39:33;;;;;;;19.05;10.80;;;;;;;;;;5031614;28;20174;-75
2022/11/21 11:47:57;;;;;;;17.27;10.43;;;;;;;;;;5009300;28;20044;-74
2022/11/21 11:50:27;;;;;;;15.38;10.10;;;;;;;;;;5043077;28;20049;-75
2022/11/21 11:53:00;;;;;;;15.23;10.18;;;;;;;;;;5028841;28;20055;-76
2022/11/21 11:55:31;;;;;;;17.08;11.10;;;;;;;;;;5031835;28;20080;-76
2022/11/21 11:58:00;;;;;;;15.48;10.13;;;;;;;;;;5030081;28;20037;-76
2022/11/21 12:00:31;;;;;;;16.35;10.65;;;;;;;;;;5031656;28;20049;-76
2022/11/21 12:03:01;;;;;;;16.23;10.23;;;;;;;;;;5031272;28;20045;-75
2022/11/21 12:05:31;;;;;;;14.18;9.25;;;;;;;;;;5032325;28;20049;-76
2022/11/21 12:08:09;;;;;;;16.30;10.13;;;;;;;;;;5031551;28;20541;-76
2022/11/21 12:12:05;;;;;;;15.43;9.68;;;;;;;;;;5029461;28;20064;-76
2022/11/21 12:13:29;;;;;;;15.90;10.05;;;;;;;;;;5028717;28;20056;-77
2022/11/21 12:15:58;;;;;;;16.85;10.15;;;;;;;;;;5032935;28;20540;-77
2022/11/21 12:18:30;;;;;;;17.02;10.98;;;;;;;;;;5032400;28;20041;-76
2022/11/21 12:21:04;;;;;;;13.88;8.98;;;;;;;;;;5030408;28;20052;-76
2022/11/21 12:23:32;;;;;;;16.65;10.65;;;;;;;;;;5030500;28;20044;-76
2022/11/21 12:26:06;;;;;;;14.38;9.65;;;;;;;;;;5026220;28;20064;-76
2022/11/21 12:28:38;;;;;;;15.00;9.32;;;;;;;;;;5026777;28;20053;-76
2022/11/21 12:31:10;;;;;;;14.43;9.15;;;;;;;;;;5024929;28;20055;-76
2022/11/21 12:33:43;;;;;;;16.10;10.23;;;;;;;;;;5029048;28;20045;-76
2022/11/21 12:36:25;;;;;;;13.02;9.20;;;;;;;;;;5031121;28;20049;-76
2022/11/21 12:38:58;;;;;;;14.77;9.52;;;;;;;;;;5024407;28;20045;-76
2022/11/21 12:44:19;;;;;;;16.33;10.10;;;;;;;;;;5050043;28;20392;-76
2022/11/21 12:46:54;;;;;;;16.25;10.18;;;;;;;;;;5029802;28;20068;-76
2022/11/21 12:55:08;;;;;;;14.45;9.80;;;;;;;;;;5027363;28;20103;-76
2022/11/21 12:57:52;;;;;;;16.40;10.82;;;;;;;;;;5037547;28;20052;-76
2022/11/21 13:00:24;;;;;;;15.73;10.60;;;;;;;;;;5033605;28;20136;-76
2022/11/21 13:03:04;;;;;;;18.08;10.90;;;;;;;;;;5034622;28;20049;-76
2022/11/21 13:05:33;;;;;;;15.43;10.43;;;;;;;;;;5028876;28;20048;-76
2022/11/21 13:08:02;;;;;;;18.70;11.32;;;;;;;;;;5031248;28;20091;-75
2022/11/21 13:10:30;;;;;;;17.20;11.38;;;;;;;;;;5030256;28;20139;-76
2022/11/21 13:13:00;;;;;;;18.73;11.48;;;;;;;;;;5030988;28;20106;-76
2022/11/21 13:15:30;;;;;;;17.38;10.95;;;;;;;;;;5037738;28;20499;-77
2022/11/21 13:18:00;;;;;;;19.05;11.77;;;;;;;;;;5032150;28;20703;-76
2022/11/21 13:20:31;;;;;;;18.50;11.85;;;;;;;;;;5025770;28;20083;-76
2022/11/21 13:22:59;;;;;;;20.23;12.15;;;;;;;;;;5038183;28;20053;-76
2022/11/21 13:25:39;;;;;;;20.02;13.02;;;;;;;;;;5026915;28;20054;-77
2022/11/21 13:28:21;;;;;;;24.48;13.70;;;;;;;;;;5030548;28;20662;-76
2022/11/21 13:30:48;;;;;;;19.60;12.45;;;;;;;;;;5017447;28;20128;-77
2022/11/21 13:33:45;;;;;;;21.40;12.57;;;;;;;;;;5029553;28;20056;-78
2022/11/21 13:36:13;;;;;;;21.25;12.80;;;;;;;;;;5026817;28;20053;-78
2022/11/21 13:38:59;;;;;;;20.05;12.85;;;;;;;;;;5025900;28;20044;-78
2022/11/21 13:44:40;;;;;;;23.55;13.57;;;;;;;;;;5025114;28;20512;-76
2022/11/21 13:47:12;;;;;;;21.55;13.32;;;;;;;;;;5027021;28;20052;-77
2022/11/21 13:49:46;;;;;;;22.88;13.88;;;;;;;;;;5020760;28;20056;-76
2022/11/21 13:52:20;;;;;;;21.90;13.60;;;;;;;;;;5025970;28;20811;-77
2022/11/21 13:54:56;;;;;;;20.85;13.45;;;;;;;;;;5029182;28;20053;-76
2022/11/21 13:57:41;;;;;;;23.55;13.90;;;;;;;;;;5034539;28;20056;-77
2022/11/21 14:00:24;;;;;;;23.90;14.43;;;;;;;;;;5014006;28;20098;-78
2022/11/21 14:03:10;;;;;;;24.10;14.98;;;;;;;;;;5022556;28;20063;-78
2022/11/21 14:05:50;;;;;;;23.25;13.88;;;;;;;;;;5031370;28;20055;-78
2022/11/21 14:08:19;;;;;;;29.13;15.63;;;;;;;;;;5027716;28;20060;-77
2022/11/21 14:10:47;;;;;;;27.33;15.75;;;;;;;;;;5027535;28;20037;-75
2022/11/21 14:13:27;;;;;;;25.10;15.02;;;;;;;;;;5031380;28;20041;-77
2022/11/21 14:16:05;;;;;;;27.88;15.60;;;;;;;;;;5028469;28;20061;-77
2022/11/21 14:18:33;;;;;;;30.85;15.70;;;;;;;;;;5028269;28;20045;-77
2022/11/21 14:21:01;;;;;;;28.90;16.13;;;;;;;;;;5025480;28;20052;-76
2022/11/21 14:23:30;;;;;;;26.00;15.00;;;;;;;;;;5025749;28;20059;-77
2022/11/21 14:26:00;;;;;;;33.10;17.33;;;;;;;;;;5027231;28;20052;-76
2022/11/21 14:28:28;;;;;;;31.13;17.05;;;;;;;;;;5026665;28;20052;-77
2022/11/21 14:30:56;;;;;;;29.58;16.00;;;;;;;;;;5026723;28;20047;-77
2022/11/21 14:33:26;;;;;;;30.38;16.55;;;;;;;;;;5028993;28;20056;-78
2022/11/21 14:35:55;;;;;;;28.77;15.05;;;;;;;;;;5028127;28;20149;-77
2022/11/21 14:38:23;;;;;;;37.28;19.23;;;;;;;;;;5028246;28;20132;-77
2022/11/21 14:40:50;;;;;;;31.88;16.08;;;;;;;;;;5024896;28;20400;-77
2022/11/21 14:43:31;;;;;;;31.33;16.08;;;;;;;;;;5024537;28;20053;-76
2022/11/21 14:45:59;;;;;;;31.45;15.93;;;;;;;;;;5028335;28;20148;-76
2022/11/21 14:48:28;;;;;;;29.60;15.35;;;;;;;;;;5026038;28;20044;-76
2022/11/21 14:50:57;;;;;;;30.58;15.25;;;;;;;;;;5024560;28;20051;-76
2022/11/21 14:53:24;;;;;;;29.92;15.38;;;;;;;;;;5027693;28;20049;-77
2022/11/21 14:55:52;;;;;;;34.47;16.40;;;;;;;;;;5031996;28;20048;-77
2022/11/21 14:58:21;;;;;;;35.28;16.65;;;;;;;;;;5027761;28;20064;-77
2022/11/21 15:01:04;;;;;;;34.40;15.55;;;;;;;;;;5044583;28;20049;-77
2022/11/21 15:03:33;;;;;;;38.70;16.88;;;;;;;;;;5025734;28;20064;-76
2022/11/21 15:06:01;;;;;;;45.72;16.33;;;;;;;;;;5029536;28;20519;-77
2022/11/21 15:08:28;;;;;;;34.92;15.85;;;;;;;;;;5025228;28;20124;-76